sensor_id;sensor_type;location;lat;lon;timestamp;pressure;altitude;pressure_sealevel;temperature;humidity
11710;BME280;5911;51.036;6.972;2023-04-27T00:01:57;101102.47;;;10.34;77.62
11710;BME280;5911;51.036;6.972;2023-04-27T00:04:25;101102.56;;;10.33;78.06
11710;BME280;5911;51.036;6.972;2023-04-27T00:06:53;101099.94;;;10.33;77.85
11710;BME280;5911;51.036;6.972;2023-04-27T00:09:23;101102.78;;;10.30;78.42
11710;BME280;5911;51.036;6.972;2023-04-27T00:11:51;101104.69;;;10.28;78.75
11710;BME280;5911;51.036;6.972;2023-04-27T00:14:18;101099.03;;;10.21;78.98
11710;BME280;5911;51.036;6.972;2023-04-27T00:16:47;101108.84;;;10.19;80.11
11710;BME280;5911;51.036;6.972;2023-04-27T00:19:15;101088.09;;;10.02;79.87
11710;BME280;5911;51.036;6.972;2023-04-27T00:21:42;101104.09;;;10.11;80.60
11710;BME280;5911;51.036;6.972;2023-04-27T00:24:10;101112.09;;;10.10;80.48
11710;BME280;5911;51.036;6.972;2023-04-27T00:26:39;101112.34;;;10.07;80.31
11710;BME280;5911;51.036;6.972;2023-04-27T00:29:07;101096.31;;;9.97;79.46
11710;BME280;5911;51.036;6.972;2023-04-27T00:31:35;101118.03;;;10.01;80.53
11710;BME280;5911;51.036;6.972;2023-04-27T00:34:03;101119.19;;;9.97;82.61
11710;BME280;5911;51.036;6.972;2023-04-27T00:36:32;101114.88;;;9.96;82.51
11710;BME280;5911;51.036;6.972;2023-04-27T00:39:01;101117.84;;;9.91;82.65
11710;BME280;5911;51.036;6.972;2023-04-27T00:41:30;101101.09;;;9.79;82.68
11710;BME280;5911;51.036;6.972;2023-04-27T00:43:59;101111.75;;;9.91;82.91
11710;BME280;5911;51.036;6.972;2023-04-27T00:46:28;101116.38;;;9.87;83.32
11710;BME280;5911;51.036;6.972;2023-04-27T00:48:57;101116.78;;;9.94;83.67
11710;BME280;5911;51.036;6.972;2023-04-27T00:51:25;101115.94;;;9.93;83.15
11710;BME280;5911;51.036;6.972;2023-04-27T00:53:56;101114.25;;;10.05;82.46
11710;BME280;5911;51.036;6.972;2023-04-27T00:56:24;101116.41;;;10.11;82.56
11710;BME280;5911;51.036;6.972;2023-04-27T00:58:53;101116.41;;;10.11;82.51
11710;BME280;5911;51.036;6.972;2023-04-27T01:01:22;101109.56;;;10.08;82.67
11710;BME280;5911;51.036;6.972;2023-04-27T01:03:50;101109.81;;;10.05;80.22
11710;BME280;5911;51.036;6.972;2023-04-27T01:06:18;101112.78;;;10.01;83.34
11710;BME280;5911;51.036;6.972;2023-04-27T01:08:46;101111.28;;;9.97;82.34
11710;BME280;5911;51.036;6.972;2023-04-27T01:11:14;101104.44;;;9.94;80.09
11710;BME280;5911;51.036;6.972;2023-04-27T01:13:42;101114.97;;;9.94;82.34
11710;BME280;5911;51.036;6.972;2023-04-27T01:16:09;101071.31;;;9.66;81.31
11710;BME280;5911;51.036;6.972;2023-04-27T01:18:39;101112.25;;;9.96;80.42
11710;BME280;5911;51.036;6.972;2023-04-27T01:21:07;101105.75;;;9.88;82.59
11710;BME280;5911;51.036;6.972;2023-04-27T01:23:36;101117.00;;;9.91;79.27
11710;BME280;5911;51.036;6.972;2023-04-27T01:26:04;101113.19;;;9.95;82.01
11710;BME280;5911;51.036;6.972;2023-04-27T01:28:32;101110.38;;;9.85;79.54
11710;BME280;5911;51.036;6.972;2023-04-27T01:31:00;101110.06;;;9.90;79.77
11710;BME280;5911;51.036;6.972;2023-04-27T01:33:27;101106.47;;;9.91;81.37
11710;BME280;5911;51.036;6.972;2023-04-27T01:35:55;101105.00;;;9.86;81.52
11710;BME280;5911;51.036;6.972;2023-04-27T01:38:26;101111.53;;;9.81;82.35
11710;BME280;5911;51.036;6.972;2023-04-27T01:40:55;101113.78;;;9.74;83.87
11710;BME280;5911;51.036;6.972;2023-04-27T01:43:27;101112.50;;;9.67;84.33
11710;BME280;5911;51.036;6.972;2023-04-27T01:45:56;101112.09;;;9.61;85.28
11710;BME280;5911;51.036;6.972;2023-04-27T01:48:23;101103.13;;;9.50;84.95
11710;BME280;5911;51.036;6.972;2023-04-27T01:50:51;101109.25;;;9.51;85.83
11710;BME280;5911;51.036;6.972;2023-04-27T01:53:19;101123.16;;;9.53;86.17
11710;BME280;5911;51.036;6.972;2023-04-27T01:55:47;101114.72;;;9.48;85.42
11710;BME280;5911;51.036;6.972;2023-04-27T01:58:16;101121.06;;;9.45;86.62
11710;BME280;5911;51.036;6.972;2023-04-27T02:00:44;101128.53;;;9.39;85.48
11710;BME280;5911;51.036;6.972;2023-04-27T02:03:12;101124.31;;;9.36;86.29
11710;BME280;5911;51.036;6.972;2023-04-27T02:05:40;101130.31;;;9.26;86.13
11710;BME280;5911;51.036;6.972;2023-04-27T02:08:08;101119.44;;;9.17;85.87
11710;BME280;5911;51.036;6.972;2023-04-27T02:10:37;101129.78;;;9.21;86.69
11710;BME280;5911;51.036;6.972;2023-04-27T02:13:05;101132.59;;;9.17;86.35
11710;BME280;5911;51.036;6.972;2023-04-27T02:15:34;101129.47;;;9.12;86.34
11710;BME280;5911;51.036;6.972;2023-04-27T02:18:02;101119.97;;;9.10;86.25
11710;BME280;5911;51.036;6.972;2023-04-27T02:20:31;101132.41;;;9.08;86.98
11710;BME280;5911;51.036;6.972;2023-04-27T02:22:59;101127.44;;;9.03;86.63
11710;BME280;5911;51.036;6.972;2023-04-27T02:25:27;101117.84;;;9.02;86.66
11710;BME280;5911;51.036;6.972;2023-04-27T02:27:55;101095.53;;;8.82;85.55
11710;BME280;5911;51.036;6.972;2023-04-27T02:30:24;101122.06;;;8.92;84.78
11710;BME280;5911;51.036;6.972;2023-04-27T02:32:58;101125.63;;;8.91;85.39
11710;BME280;5911;51.036;6.972;2023-04-27T02:35:26;101122.69;;;8.96;86.14
11710;BME280;5911;51.036;6.972;2023-04-27T02:37:54;101117.44;;;8.96;86.81
11710;BME280;5911;51.036;6.972;2023-04-27T02:40:23;101122.06;;;8.92;87.93
11710;BME280;5911;51.036;6.972;2023-04-27T02:42:50;101118.78;;;8.89;88.13
11710;BME280;5911;51.036;6.972;2023-04-27T02:45:18;101120.56;;;8.88;88.70
11710;BME280;5911;51.036;6.972;2023-04-27T02:47:46;101120.66;;;8.87;88.58
11710;BME280;5911;51.036;6.972;2023-04-27T02:50:16;101116.56;;;8.82;88.79
11710;BME280;5911;51.036;6.972;2023-04-27T02:52:44;101115.94;;;8.79;87.96
11710;BME280;5911;51.036;6.972;2023-04-27T02:55:11;101097.91;;;8.73;88.19
11710;BME280;5911;51.036;6.972;2023-04-27T02:57:39;101096.97;;;8.74;89.33
11710;BME280;5911;51.036;6.972;2023-04-27T03:00:08;101100.16;;;8.79;88.27
11710;BME280;5911;51.036;6.972;2023-04-27T03:02:37;101103.63;;;8.79;87.71
11710;BME280;5911;51.036;6.972;2023-04-27T03:05:06;101099.50;;;8.75;87.84
11710;BME280;5911;51.036;6.972;2023-04-27T03:07:35;101101.47;;;8.72;87.33
11710;BME280;5911;51.036;6.972;2023-04-27T03:10:03;101075.47;;;8.55;87.86
11710;BME280;5911;51.036;6.972;2023-04-27T03:12:31;101099.28;;;8.66;87.68
11710;BME280;5911;51.036;6.972;2023-04-27T03:14:59;101072.09;;;8.53;88.61
11710;BME280;5911;51.036;6.972;2023-04-27T03:17:27;101102.09;;;8.63;87.69
11710;BME280;5911;51.036;6.972;2023-04-27T03:19:55;101093.38;;;8.62;88.96
11710;BME280;5911;51.036;6.972;2023-04-27T03:22:23;101104.72;;;8.63;89.07
11710;BME280;5911;51.036;6.972;2023-04-27T03:24:52;101094.97;;;8.65;88.75
11710;BME280;5911;51.036;6.972;2023-04-27T03:27:19;101092.38;;;8.51;86.38
11710;BME280;5911;51.036;6.972;2023-04-27T03:29:50;101102.38;;;8.58;85.74
11710;BME280;5911;51.036;6.972;2023-04-27T03:32:18;101104.91;;;8.60;87.88
11710;BME280;5911;51.036;6.972;2023-04-27T03:34:46;101097.97;;;8.59;87.68
11710;BME280;5911;51.036;6.972;2023-04-27T03:37:14;101091.66;;;8.49;87.78
11710;BME280;5911;51.036;6.972;2023-04-27T03:39:42;101101.53;;;8.58;87.78
11710;BME280;5911;51.036;6.972;2023-04-27T03:42:12;101101.78;;;8.55;88.64
11710;BME280;5911;51.036;6.972;2023-04-27T03:44:40;101096.91;;;8.49;88.43
11710;BME280;5911;51.036;6.972;2023-04-27T03:47:08;101108.25;;;8.49;89.67
11710;BME280;5911;51.036;6.972;2023-04-27T03:49:37;101106.66;;;8.46;91.02
11710;BME280;5911;51.036;6.972;2023-04-27T03:52:06;101097.09;;;8.45;89.94
11710;BME280;5911;51.036;6.972;2023-04-27T03:54:34;101104.22;;;8.43;90.15
11710;BME280;5911;51.036;6.972;2023-04-27T03:57:03;101102.63;;;8.41;90.10
11710;BME280;5911;51.036;6.972;2023-04-27T03:59:32;101098.84;;;8.32;91.42
11710;BME280;5911;51.036;6.972;2023-04-27T04:01:59;101101.38;;;8.34;91.33
11710;BME280;5911;51.036;6.972;2023-04-27T04:04:29;101113.66;;;8.33;89.03
11710;BME280;5911;51.036;6.972;2023-04-27T04:06:57;101110.09;;;8.34;87.12
11710;BME280;5911;51.036;6.972;2023-04-27T04:09:25;101115.59;;;8.44;86.77
11710;BME280;5911;51.036;6.972;2023-04-27T04:11:53;101107.81;;;8.42;86.12
11710;BME280;5911;51.036;6.972;2023-04-27T04:14:21;101121.31;;;8.51;86.17
11710;BME280;5911;51.036;6.972;2023-04-27T04:16:51;101125.44;;;8.55;85.79
11710;BME280;5911;51.036;6.972;2023-04-27T04:19:19;101131.41;;;8.57;87.49
11710;BME280;5911;51.036;6.972;2023-04-27T04:21:47;101140.25;;;8.56;86.76
11710;BME280;5911;51.036;6.972;2023-04-27T04:24:17;101131.53;;;8.55;87.27
11710;BME280;5911;51.036;6.972;2023-04-27T04:26:45;101126.75;;;8.48;88.10
11710;BME280;5911;51.036;6.972;2023-04-27T04:29:14;101139.16;;;8.45;85.36
11710;BME280;5911;51.036;6.972;2023-04-27T04:31:42;101138.97;;;8.49;87.04
11710;BME280;5911;51.036;6.972;2023-04-27T04:34:12;101141.78;;;8.45;87.65
11710;BME280;5911;51.036;6.972;2023-04-27T04:36:40;101138.72;;;8.39;88.75
11710;BME280;5911;51.036;6.972;2023-04-27T04:39:08;101093.59;;;8.18;88.52
11710;BME280;5911;51.036;6.972;2023-04-27T04:41:38;101120.50;;;8.36;87.03
11710;BME280;5911;51.036;6.972;2023-04-27T04:44:08;101141.03;;;8.43;86.54
11710;BME280;5911;51.036;6.972;2023-04-27T04:46:36;101143.28;;;8.50;88.98
11710;BME280;5911;51.036;6.972;2023-04-27T04:49:04;100972.03;;;7.48;87.98
11710;BME280;5911;51.036;6.972;2023-04-27T04:51:34;101143.09;;;8.53;87.35
11710;BME280;5911;51.036;6.972;2023-04-27T04:54:02;101141.94;;;8.57;87.09
11710;BME280;5911;51.036;6.972;2023-04-27T04:56:30;101145.50;;;8.56;85.26
11710;BME280;5911;51.036;6.972;2023-04-27T04:59:00;101148.69;;;8.61;85.52
11710;BME280;5911;51.036;6.972;2023-04-27T05:01:30;101139.66;;;8.65;86.82
11710;BME280;5911;51.036;6.972;2023-04-27T05:03:58;101143.22;;;8.64;88.01
11710;BME280;5911;51.036;6.972;2023-04-27T05:06:26;101148.50;;;8.64;87.65
11710;BME280;5911;51.036;6.972;2023-04-27T05:08:55;101152.25;;;8.60;84.62
11710;BME280;5911;51.036;6.972;2023-04-27T05:11:22;101128.25;;;8.52;87.60
11710;BME280;5911;51.036;6.972;2023-04-27T05:13:50;101155.88;;;8.71;87.67
11710;BME280;5911;51.036;6.972;2023-04-27T05:16:18;101158.41;;;8.73;86.98
11710;BME280;5911;51.036;6.972;2023-04-27T05:18:46;101172.09;;;8.78;87.33
11710;BME280;5911;51.036;6.972;2023-04-27T05:21:14;101138.34;;;8.58;88.47
11710;BME280;5911;51.036;6.972;2023-04-27T05:23:43;101167.88;;;8.75;89.49
11710;BME280;5911;51.036;6.972;2023-04-27T05:26:12;101159.47;;;8.70;88.43
11710;BME280;5911;51.036;6.972;2023-04-27T05:28:40;101161.38;;;8.81;89.40
11710;BME280;5911;51.036;6.972;2023-04-27T05:31:08;101157.25;;;8.77;88.18
11710;BME280;5911;51.036;6.972;2023-04-27T05:33:36;101156.78;;;8.85;88.73
11710;BME280;5911;51.036;6.972;2023-04-27T05:36:04;101161.91;;;8.86;87.01
11710;BME280;5911;51.036;6.972;2023-04-27T05:38:33;101166.97;;;8.89;89.27
11710;BME280;5911;51.036;6.972;2023-04-27T05:41:05;101167.72;;;8.91;87.56
11710;BME280;5911;51.036;6.972;2023-04-27T05:43:34;101168.56;;;8.92;90.34
11710;BME280;5911;51.036;6.972;2023-04-27T05:46:04;101173.72;;;8.93;88.54
11710;BME280;5911;51.036;6.972;2023-04-27T05:48:32;101184.91;;;8.97;88.68
11710;BME280;5911;51.036;6.972;2023-04-27T05:51:00;101188.38;;;8.97;87.06
11710;BME280;5911;51.036;6.972;2023-04-27T05:53:29;101181.00;;;9.02;88.04
11710;BME280;5911;51.036;6.972;2023-04-27T05:55:57;101178.91;;;9.07;87.43
11710;BME280;5911;51.036;6.972;2023-04-27T05:58:26;101180.59;;;9.08;89.31
11710;BME280;5911;51.036;6.972;2023-04-27T06:00:55;101190.00;;;9.12;89.21
11710;BME280;5911;51.036;6.972;2023-04-27T06:03:23;101171.78;;;9.09;90.11
11710;BME280;5911;51.036;6.972;2023-04-27T06:05:55;101188.63;;;9.20;89.65
11710;BME280;5911;51.036;6.972;2023-04-27T06:08:24;101185.78;;;9.23;91.10
11710;BME280;5911;51.036;6.972;2023-04-27T06:10:52;101185.91;;;9.21;91.99
11710;BME280;5911;51.036;6.972;2023-04-27T06:13:21;101193.28;;;9.29;90.00
11710;BME280;5911;51.036;6.972;2023-04-27T06:15:48;101194.88;;;9.31;91.80
11710;BME280;5911;51.036;6.972;2023-04-27T06:18:18;101173.06;;;9.16;91.09
11710;BME280;5911;51.036;6.972;2023-04-27T06:20:45;101196.25;;;9.37;90.98
11710;BME280;5911;51.036;6.972;2023-04-27T06:23:13;101203.19;;;9.38;89.48
11710;BME280;5911;51.036;6.972;2023-04-27T06:25:42;101195.00;;;9.42;91.90
11710;BME280;5911;51.036;6.972;2023-04-27T06:28:10;101198.38;;;9.44;93.58
11710;BME280;5911;51.036;6.972;2023-04-27T06:30:38;101194.78;;;9.45;91.62
11710;BME280;5911;51.036;6.972;2023-04-27T06:33:06;101195.41;;;9.49;88.05
11710;BME280;5911;51.036;6.972;2023-04-27T06:35:35;101199.63;;;9.51;87.90
11710;BME280;5911;51.036;6.972;2023-04-27T06:38:03;101194.91;;;9.57;90.21
11710;BME280;5911;51.036;6.972;2023-04-27T06:40:34;101193.97;;;9.58;91.26
11710;BME280;5911;51.036;6.972;2023-04-27T06:43:02;101197.94;;;9.63;90.91
11710;BME280;5911;51.036;6.972;2023-04-27T06:45:30;101164.03;;;9.46;91.50
11710;BME280;5911;51.036;6.972;2023-04-27T06:47:58;101197.44;;;9.58;89.97
11710;BME280;5911;51.036;6.972;2023-04-27T06:50:26;101190.38;;;9.59;89.21
11710;BME280;5911;51.036;6.972;2023-04-27T06:52:56;101175.63;;;9.56;90.51
11710;BME280;5911;51.036;6.972;2023-04-27T06:55:24;101189.53;;;9.71;88.23
11710;BME280;5911;51.036;6.972;2023-04-27T06:57:51;101195.94;;;9.79;87.82
11710;BME280;5911;51.036;6.972;2023-04-27T07:00:20;101167.81;;;9.67;89.70
11710;BME280;5911;51.036;6.972;2023-04-27T07:02:49;101192.91;;;9.85;83.46
11710;BME280;5911;51.036;6.972;2023-04-27T07:05:17;101190.91;;;9.89;83.22
11710;BME280;5911;51.036;6.972;2023-04-27T07:07:45;101198.34;;;9.95;87.54
11710;BME280;5911;51.036;6.972;2023-04-27T07:10:14;101193.72;;;9.99;87.70
11710;BME280;5911;51.036;6.972;2023-04-27T07:12:42;101187.41;;;10.01;88.46
11710;BME280;5911;51.036;6.972;2023-04-27T07:15:10;101193.31;;;10.05;85.51
11710;BME280;5911;51.036;6.972;2023-04-27T07:17:37;101194.53;;;10.12;86.18
11710;BME280;5911;51.036;6.972;2023-04-27T07:20:07;101194.34;;;10.15;80.67
11710;BME280;5911;51.036;6.972;2023-04-27T07:22:34;101194.69;;;10.23;81.12
11710;BME280;5911;51.036;6.972;2023-04-27T07:25:03;101200.47;;;10.28;76.55
11710;BME280;5911;51.036;6.972;2023-04-27T07:27:32;101194.97;;;10.31;78.19
11710;BME280;5911;51.036;6.972;2023-04-27T07:30:01;101192.88;;;10.36;82.52
11710;BME280;5911;51.036;6.972;2023-04-27T07:32:28;101196.94;;;10.40;77.33
11710;BME280;5911;51.036;6.972;2023-04-27T07:34:56;101174.81;;;10.30;76.23
11710;BME280;5911;51.036;6.972;2023-04-27T07:37:25;101199.88;;;10.48;77.25
11710;BME280;5911;51.036;6.972;2023-04-27T07:39:52;101198.94;;;10.49;79.25
11710;BME280;5911;51.036;6.972;2023-04-27T07:42:20;101199.44;;;10.54;81.75
11710;BME280;5911;51.036;6.972;2023-04-27T07:44:50;101191.03;;;10.49;77.17
11710;BME280;5911;51.036;6.972;2023-04-27T07:47:19;101194.41;;;10.51;72.78
11710;BME280;5911;51.036;6.972;2023-04-27T07:49:47;101200.28;;;10.55;70.39
11710;BME280;5911;51.036;6.972;2023-04-27T07:52:15;101195.25;;;10.52;65.90
11710;BME280;5911;51.036;6.972;2023-04-27T07:54:43;101190.88;;;10.64;71.22
11710;BME280;5911;51.036;6.972;2023-04-27T07:57:10;101197.81;;;10.65;66.11
11710;BME280;5911;51.036;6.972;2023-04-27T07:59:38;101197.16;;;10.74;69.00
11710;BME280;5911;51.036;6.972;2023-04-27T08:02:08;101196.72;;;10.80;67.88
11710;BME280;5911;51.036;6.972;2023-04-27T08:04:44;101195.25;;;10.76;60.55
11710;BME280;5911;51.036;6.972;2023-04-27T08:07:14;101191.22;;;10.83;65.38
11710;BME280;5911;51.036;6.972;2023-04-27T08:09:42;101193.50;;;10.87;68.06
11710;BME280;5911;51.036;6.972;2023-04-27T08:12:09;101193.16;;;10.92;66.91
11710;BME280;5911;51.036;6.972;2023-04-27T08:14:37;101183.34;;;10.94;64.74
11710;BME280;5911;51.036;6.972;2023-04-27T08:17:05;101190.78;;;11.00;65.72
11710;BME280;5911;51.036;6.972;2023-04-27T08:19:34;101173.53;;;11.07;67.67
11710;BME280;5911;51.036;6.972;2023-04-27T08:22:02;101179.56;;;11.09;64.23
11710;BME280;5911;51.036;6.972;2023-04-27T08:24:30;101174.78;;;11.14;64.11
11710;BME280;5911;51.036;6.972;2023-04-27T08:26:57;101174.66;;;11.16;65.12
11710;BME280;5911;51.036;6.972;2023-04-27T08:29:25;101175.25;;;11.19;61.08
11710;BME280;5911;51.036;6.972;2023-04-27T08:31:58;101173.13;;;11.24;63.17
11710;BME280;5911;51.036;6.972;2023-04-27T08:34:27;101168.34;;;11.30;58.92
11710;BME280;5911;51.036;6.972;2023-04-27T08:36:56;101150.19;;;11.25;61.17
11710;BME280;5911;51.036;6.972;2023-04-27T08:39:24;101150.72;;;11.30;63.10
11710;BME280;5911;51.036;6.972;2023-04-27T08:41:51;101171.75;;;11.43;60.74
11710;BME280;5911;51.036;6.972;2023-04-27T08:44:19;101172.69;;;11.42;63.34
11710;BME280;5911;51.036;6.972;2023-04-27T08:46:47;101165.13;;;11.37;56.40
11710;BME280;5911;51.036;6.972;2023-04-27T08:49:16;101166.47;;;11.43;62.19
11710;BME280;5911;51.036;6.972;2023-04-27T08:51:44;101155.63;;;11.35;59.64
11710;BME280;5911;51.036;6.972;2023-04-27T08:54:13;101166.47;;;11.43;55.50
11710;BME280;5911;51.036;6.972;2023-04-27T08:56:41;101161.28;;;11.41;58.14
11710;BME280;5911;51.036;6.972;2023-04-27T08:59:13;101164.06;;;11.51;55.41
11710;BME280;5911;51.036;6.972;2023-04-27T09:01:43;101174.63;;;11.62;56.97
11710;BME280;5911;51.036;6.972;2023-04-27T09:04:12;101165.75;;;11.63;57.50
11710;BME280;5911;51.036;6.972;2023-04-27T09:06:40;101162.25;;;11.51;53.55
11710;BME280;5911;51.036;6.972;2023-04-27T09:09:08;101166.84;;;11.60;54.49
11710;BME280;5911;51.036;6.972;2023-04-27T09:11:38;101165.50;;;11.66;54.66
11710;BME280;5911;51.036;6.972;2023-04-27T09:14:15;101140.88;;;11.66;58.33
11710;BME280;5911;51.036;6.972;2023-04-27T09:16:43;101147.03;;;11.77;56.52
11710;BME280;5911;51.036;6.972;2023-04-27T09:19:11;101154.50;;;11.83;55.41
11710;BME280;5911;51.036;6.972;2023-04-27T09:21:39;101161.72;;;11.92;55.99
11710;BME280;5911;51.036;6.972;2023-04-27T09:24:09;101153.09;;;11.90;55.82
11710;BME280;5911;51.036;6.972;2023-04-27T09:26:39;101162.19;;;11.97;54.23
11710;BME280;5911;51.036;6.972;2023-04-27T09:29:08;101167.97;;;12.03;54.67
11710;BME280;5911;51.036;6.972;2023-04-27T09:31:35;101164.13;;;12.07;54.79
11710;BME280;5911;51.036;6.972;2023-04-27T09:34:03;101166.50;;;12.10;52.82
11710;BME280;5911;51.036;6.972;2023-04-27T09:36:31;101162.56;;;12.15;54.45
11710;BME280;5911;51.036;6.972;2023-04-27T09:39:01;101163.16;;;12.19;54.17
11710;BME280;5911;51.036;6.972;2023-04-27T09:41:31;101142.47;;;12.13;52.84
11710;BME280;5911;51.036;6.972;2023-04-27T09:44:00;101158.06;;;12.27;54.81
11710;BME280;5911;51.036;6.972;2023-04-27T09:46:32;101150.13;;;12.38;57.33
11710;BME280;5911;51.036;6.972;2023-04-27T09:49:03;101147.47;;;12.38;54.78
11710;BME280;5911;51.036;6.972;2023-04-27T09:51:32;101145.31;;;12.43;53.66
11710;BME280;5911;51.036;6.972;2023-04-27T09:54:01;101139.28;;;12.52;54.88
11710;BME280;5911;51.036;6.972;2023-04-27T09:56:39;101142.47;;;12.67;55.22
11710;BME280;5911;51.036;6.972;2023-04-27T09:59:25;101149.59;;;12.66;52.90
11710;BME280;5911;51.036;6.972;2023-04-27T10:01:59;101137.09;;;12.89;53.23
11710;BME280;5911;51.036;6.972;2023-04-27T10:04:55;101146.47;;;12.93;52.08
11710;BME280;5911;51.036;6.972;2023-04-27T10:07:30;101120.03;;;12.82;51.70
11710;BME280;5911;51.036;6.972;2023-04-27T10:10:01;101141.03;;;12.95;52.09
11710;BME280;5911;51.036;6.972;2023-04-27T10:12:32;101133.75;;;13.08;52.77
11710;BME280;5911;51.036;6.972;2023-04-27T10:15:12;101126.97;;;13.15;51.19
11710;BME280;5911;51.036;6.972;2023-04-27T10:17:47;101104.56;;;13.19;50.90
11710;BME280;5911;51.036;6.972;2023-04-27T10:20:15;101120.13;;;13.54;54.10
11710;BME280;5911;51.036;6.972;2023-04-27T10:22:45;101123.97;;;13.71;51.02
11710;BME280;5911;51.036;6.972;2023-04-27T10:25:16;101126.13;;;13.87;51.66
11710;BME280;5911;51.036;6.972;2023-04-27T10:27:48;101127.69;;;13.89;49.95
11710;BME280;5911;51.036;6.972;2023-04-27T10:30:19;101135.53;;;14.00;47.84
11710;BME280;5911;51.036;6.972;2023-04-27T10:32:51;101128.59;;;14.19;50.75
11710;BME280;5911;51.036;6.972;2023-04-27T10:35:20;101116.75;;;14.32;50.76
11710;BME280;5911;51.036;6.972;2023-04-27T10:37:48;101117.53;;;14.63;50.62
11710;BME280;5911;51.036;6.972;2023-04-27T10:40:17;101114.00;;;14.82;48.71
11710;BME280;5911;51.036;6.972;2023-04-27T10:42:45;101115.25;;;15.26;50.29
11710;BME280;5911;51.036;6.972;2023-04-27T10:45:26;101106.25;;;15.37;48.44
11710;BME280;5911;51.036;6.972;2023-04-27T10:47:58;101091.56;;;15.42;46.67
11710;BME280;5911;51.036;6.972;2023-04-27T10:50:27;101107.59;;;15.70;46.69
11710;BME280;5911;51.036;6.972;2023-04-27T10:52:58;101107.47;;;15.89;46.14
11710;BME280;5911;51.036;6.972;2023-04-27T10:55:28;101095.47;;;16.12;47.71
11710;BME280;5911;51.036;6.972;2023-04-27T10:57:57;101101.09;;;15.82;45.34
11710;BME280;5911;51.036;6.972;2023-04-27T11:00:28;101101.88;;;15.45;46.84
11710;BME280;5911;51.036;6.972;2023-04-27T11:03:09;101078.50;;;14.93;47.27
11710;BME280;5911;51.036;6.972;2023-04-27T11:05:37;101097.38;;;14.90;47.19
11710;BME280;5911;51.036;6.972;2023-04-27T11:08:06;101097.09;;;15.02;46.24
11710;BME280;5911;51.036;6.972;2023-04-27T11:10:37;101090.25;;;15.46;47.72
11710;BME280;5911;51.036;6.972;2023-04-27T11:13:08;101076.09;;;15.65;50.42
11710;BME280;5911;51.036;6.972;2023-04-27T11:15:49;101085.78;;;16.11;47.67
11710;BME280;5911;51.036;6.972;2023-04-27T11:18:18;101095.66;;;16.46;46.00
11710;BME280;5911;51.036;6.972;2023-04-27T11:20:49;101099.75;;;16.59;45.34
11710;BME280;5911;51.036;6.972;2023-04-27T11:23:24;101097.44;;;16.73;45.42
11710;BME280;5911;51.036;6.972;2023-04-27T11:25:53;101085.84;;;16.82;44.95
11710;BME280;5911;51.036;6.972;2023-04-27T11:28:21;101076.72;;;16.67;43.50
11710;BME280;5911;51.036;6.972;2023-04-27T11:30:57;101075.50;;;16.79;44.61
11710;BME280;5911;51.036;6.972;2023-04-27T11:33:29;101084.00;;;17.01;44.20
11710;BME280;5911;51.036;6.972;2023-04-27T11:35:58;101085.31;;;17.22;49.10
11710;BME280;5911;51.036;6.972;2023-04-27T11:38:32;101088.00;;;17.22;47.41
11710;BME280;5911;51.036;6.972;2023-04-27T11:41:03;101090.81;;;17.21;44.49
11710;BME280;5911;51.036;6.972;2023-04-27T11:43:32;101081.56;;;17.33;46.06
11710;BME280;5911;51.036;6.972;2023-04-27T11:46:04;101057.84;;;17.30;43.16
11710;BME280;5911;51.036;6.972;2023-04-27T11:48:34;101086.66;;;17.52;43.50
11710;BME280;5911;51.036;6.972;2023-04-27T11:51:03;101082.47;;;17.50;45.83
11710;BME280;5911;51.036;6.972;2023-04-27T11:53:32;101076.34;;;17.57;42.76
11710;BME280;5911;51.036;6.972;2023-04-27T11:56:03;101079.47;;;17.79;41.76
11710;BME280;5911;51.036;6.972;2023-04-27T11:58:32;101071.84;;;17.84;43.19
11710;BME280;5911;51.036;6.972;2023-04-27T12:01:00;101056.66;;;17.84;44.13
11710;BME280;5911;51.036;6.972;2023-04-27T12:03:30;101051.22;;;18.18;42.53
11710;BME280;5911;51.036;6.972;2023-04-27T12:05:59;101051.25;;;18.26;41.95
11710;BME280;5911;51.036;6.972;2023-04-27T12:08:46;101054.75;;;18.27;43.64
11710;BME280;5911;51.036;6.972;2023-04-27T12:11:14;101065.25;;;18.12;40.23
11710;BME280;5911;51.036;6.972;2023-04-27T12:13:42;101029.78;;;17.78;42.43
11710;BME280;5911;51.036;6.972;2023-04-27T12:16:10;101063.84;;;17.92;42.31
11710;BME280;5911;51.036;6.972;2023-04-27T12:18:40;101054.06;;;18.09;42.68
11710;BME280;5911;51.036;6.972;2023-04-27T12:21:08;101055.69;;;18.60;43.58
11710;BME280;5911;51.036;6.972;2023-04-27T12:23:35;101056.84;;;18.90;42.37
11710;BME280;5911;51.036;6.972;2023-04-27T12:26:03;101046.97;;;18.98;41.46
11710;BME280;5911;51.036;6.972;2023-04-27T12:28:31;101040.78;;;18.98;41.05
11710;BME280;5911;51.036;6.972;2023-04-27T12:31:01;101042.91;;;19.19;41.65
11710;BME280;5911;51.036;6.972;2023-04-27T12:33:29;101028.25;;;18.98;41.24
11710;BME280;5911;51.036;6.972;2023-04-27T12:35:59;101036.94;;;19.09;43.11
11710;BME280;5911;51.036;6.972;2023-04-27T12:38:26;101030.63;;;19.41;43.11
11710;BME280;5911;51.036;6.972;2023-04-27T12:40:54;101036.63;;;19.67;40.08
11710;BME280;5911;51.036;6.972;2023-04-27T12:43:22;101017.88;;;19.98;40.62
11710;BME280;5911;51.036;6.972;2023-04-27T12:45:50;101039.97;;;20.23;39.52
11710;BME280;5911;51.036;6.972;2023-04-27T12:48:18;101040.31;;;20.51;41.12
11710;BME280;5911;51.036;6.972;2023-04-27T12:50:46;101035.63;;;20.22;39.33
11710;BME280;5911;51.036;6.972;2023-04-27T12:53:15;101043.56;;;19.84;41.09
11710;BME280;5911;51.036;6.972;2023-04-27T12:55:43;101041.97;;;19.59;41.01
11710;BME280;5911;51.036;6.972;2023-04-27T12:58:12;101034.53;;;19.30;40.45
11710;BME280;5911;51.036;6.972;2023-04-27T13:00:40;101041.34;;;19.41;41.26
11710;BME280;5911;51.036;6.972;2023-04-27T13:03:08;101032.22;;;19.19;41.32
11710;BME280;5911;51.036;6.972;2023-04-27T13:05:36;101026.41;;;18.99;39.72
11710;BME280;5911;51.036;6.972;2023-04-27T13:08:04;101036.25;;;19.07;40.08
11710;BME280;5911;51.036;6.972;2023-04-27T13:10:33;101018.13;;;19.33;40.43
11710;BME280;5911;51.036;6.972;2023-04-27T13:13:02;101035.44;;;19.70;39.38
11710;BME280;5911;51.036;6.972;2023-04-27T13:15:30;101042.22;;;19.80;38.96